sensor_id;sensor_type;location;lat;lon;timestamp;P1;durP1;ratioP1;P2;durP2;ratioP2
66127;SDS011;52925;52.436;-1.952;2022-12-22T00:01:35;8.53;;;4.67;;
66127;SDS011;52925;52.436;-1.952;2022-12-22T00:03:13;8.27;;;5.23;;
66127;SDS011;52925;52.436;-1.952;2022-12-22T00:04:51;7.40;;;5.27;;
66127;SDS011;52925;52.436;-1.952;2022-12-22T00:06:30;7.63;;;4.63;;
66127;SDS011;52925;52.436;-1.952;2022-12-22T00:08:08;8.03;;;5.27;;
66127;SDS011;52925;52.436;-1.952;2022-12-22T00:09:47;6.90;;;4.67;;
66127;SDS011;52925;52.436;-1.952;2022-12-22T00:11:26;6.47;;;4.80;;
66127;SDS011;52925;52.436;-1.952;2022-12-22T00:13:04;8.07;;;4.90;;
66127;SDS011;52925;52.436;-1.952;2022-12-22T00:14:46;8.50;;;4.70;;
66127;SDS011;52925;52.436;-1.952;2022-12-22T00:16:27;6.07;;;4.37;;
66127;SDS011;52925;52.436;-1.952;2022-12-22T00:18:09;6.90;;;4.60;;
66127;SDS011;52925;52.436;-1.952;2022-12-22T00:19:51;7.40;;;4.60;;
66127;SDS011;52925;52.436;-1.952;2022-12-22T00:21:30;8.57;;;4.50;;
66127;SDS011;52925;52.436;-1.952;2022-12-22T00:23:08;9.67;;;5.17;;
66127;SDS011;52925;52.436;-1.952;2022-12-22T00:24:47;6.70;;;5.07;;
66127;SDS011;52925;52.436;-1.952;2022-12-22T00:26:25;8.47;;;5.37;;
66127;SDS011;52925;52.436;-1.952;2022-12-22T00:28:10;6.63;;;4.57;;
66127;SDS011;52925;52.436;-1.952;2022-12-22T00:29:50;9.47;;;5.03;;
66127;SDS011;52925;52.436;-1.952;2022-12-22T00:31:29;7.13;;;5.00;;
66127;SDS011;52925;52.436;-1.952;2022-12-22T00:33:08;7.57;;;4.80;;
66127;SDS011;52925;52.436;-1.952;2022-12-22T00:34:51;7.30;;;4.60;;
66127;SDS011;52925;52.436;-1.952;2022-12-22T00:36:29;6.70;;;4.63;;
66127;SDS011;52925;52.436;-1.952;2022-12-22T00:38:12;6.13;;;4.80;;
66127;SDS011;52925;52.436;-1.952;2022-12-22T00:39:52;8.37;;;4.80;;
66127;SDS011;52925;52.436;-1.952;2022-12-22T00:41:31;7.63;;;4.50;;
66127;SDS011;52925;52.436;-1.952;2022-12-22T00:43:09;7.77;;;5.37;;
66127;SDS011;52925;52.436;-1.952;2022-12-22T00:44:48;7.17;;;4.97;;
66127;SDS011;52925;52.436;-1.952;2022-12-22T00:46:26;7.27;;;4.67;;
66127;SDS011;52925;52.436;-1.952;2022-12-22T00:48:05;8.37;;;5.43;;
66127;SDS011;52925;52.436;-1.952;2022-12-22T00:49:55;7.60;;;4.80;;
66127;SDS011;52925;52.436;-1.952;2022-12-22T00:51:33;6.30;;;4.80;;
66127;SDS011;52925;52.436;-1.952;2022-12-22T00:53:12;6.33;;;5.10;;
66127;SDS011;52925;52.436;-1.952;2022-12-22T00:54:51;5.87;;;4.70;;
66127;SDS011;52925;52.436;-1.952;2022-12-22T00:56:30;7.70;;;4.57;;
66127;SDS011;52925;52.436;-1.952;2022-12-22T00:58:11;7.57;;;5.20;;
66127;SDS011;52925;52.436;-1.952;2022-12-22T00:59:53;6.73;;;5.03;;
66127;SDS011;52925;52.436;-1.952;2022-12-22T01:01:33;8.17;;;4.80;;
66127;SDS011;52925;52.436;-1.952;2022-12-22T01:03:13;7.37;;;5.23;;
66127;SDS011;52925;52.436;-1.952;2022-12-22T01:04:51;8.43;;;5.30;;
66127;SDS011;52925;52.436;-1.952;2022-12-22T01:06:29;7.30;;;5.27;;
66127;SDS011;52925;52.436;-1.952;2022-12-22T01:08:10;7.83;;;5.43;;
66127;SDS011;52925;52.436;-1.952;2022-12-22T01:09:50;7.67;;;5.17;;
66127;SDS011;52925;52.436;-1.952;2022-12-22T01:11:29;6.97;;;5.37;;
66127;SDS011;52925;52.436;-1.952;2022-12-22T01:13:09;8.10;;;5.80;;
66127;SDS011;52925;52.436;-1.952;2022-12-22T01:14:48;8.60;;;6.07;;
66127;SDS011;52925;52.436;-1.952;2022-12-22T01:16:27;7.47;;;5.60;;
66127;SDS011;52925;52.436;-1.952;2022-12-22T01:18:05;7.17;;;5.43;;
66127;SDS011;52925;52.436;-1.952;2022-12-22T01:19:45;8.13;;;5.40;;
66127;SDS011;52925;52.436;-1.952;2022-12-22T01:21:23;7.00;;;5.30;;
66127;SDS011;52925;52.436;-1.952;2022-12-22T01:23:06;8.93;;;6.17;;
66127;SDS011;52925;52.436;-1.952;2022-12-22T01:24:46;7.83;;;5.17;;
66127;SDS011;52925;52.436;-1.952;2022-12-22T01:26:24;9.77;;;6.17;;
66127;SDS011;52925;52.436;-1.952;2022-12-22T01:28:04;9.43;;;6.03;;
66127;SDS011;52925;52.436;-1.952;2022-12-22T01:29:42;8.23;;;5.87;;
66127;SDS011;52925;52.436;-1.952;2022-12-22T01:31:24;8.87;;;5.60;;
66127;SDS011;52925;52.436;-1.952;2022-12-22T01:33:06;9.40;;;5.83;;
66127;SDS011;52925;52.436;-1.952;2022-12-22T01:34:49;8.17;;;5.70;;
66127;SDS011;52925;52.436;-1.952;2022-12-22T01:36:27;7.87;;;5.77;;
66127;SDS011;52925;52.436;-1.952;2022-12-22T01:38:05;6.47;;;5.33;;
66127;SDS011;52925;52.436;-1.952;2022-12-22T01:39:44;9.73;;;5.67;;
66127;SDS011;52925;52.436;-1.952;2022-12-22T01:41:22;7.33;;;5.73;;
66127;SDS011;52925;52.436;-1.952;2022-12-22T01:43:00;10.00;;;5.60;;
66127;SDS011;52925;52.436;-1.952;2022-12-22T01:44:39;7.67;;;6.20;;
66127;SDS011;52925;52.436;-1.952;2022-12-22T01:46:21;7.83;;;6.23;;
66127;SDS011;52925;52.436;-1.952;2022-12-22T01:48:01;7.40;;;5.77;;
66127;SDS011;52925;52.436;-1.952;2022-12-22T01:49:40;8.20;;;6.47;;
66127;SDS011;52925;52.436;-1.952;2022-12-22T01:51:22;9.10;;;6.33;;
66127;SDS011;52925;52.436;-1.952;2022-12-22T01:53:05;8.13;;;6.27;;
66127;SDS011;52925;52.436;-1.952;2022-12-22T01:54:46;8.33;;;5.97;;
66127;SDS011;52925;52.436;-1.952;2022-12-22T01:56:26;8.17;;;5.93;;
66127;SDS011;52925;52.436;-1.952;2022-12-22T01:58:05;9.00;;;6.00;;
66127;SDS011;52925;52.436;-1.952;2022-12-22T01:59:52;7.10;;;6.23;;
66127;SDS011;52925;52.436;-1.952;2022-12-22T02:01:33;8.07;;;6.13;;
66127;SDS011;52925;52.436;-1.952;2022-12-22T02:03:13;7.63;;;5.90;;
66127;SDS011;52925;52.436;-1.952;2022-12-22T02:04:53;9.23;;;6.20;;
66127;SDS011;52925;52.436;-1.952;2022-12-22T02:06:35;7.33;;;5.80;;
66127;SDS011;52925;52.436;-1.952;2022-12-22T02:08:16;7.13;;;5.60;;
66127;SDS011;52925;52.436;-1.952;2022-12-22T02:10:02;8.93;;;5.77;;
66127;SDS011;52925;52.436;-1.952;2022-12-22T02:11:51;7.87;;;6.03;;
66127;SDS011;52925;52.436;-1.952;2022-12-22T02:13:40;7.07;;;6.10;;
66127;SDS011;52925;52.436;-1.952;2022-12-22T02:15:27;6.50;;;5.67;;
66127;SDS011;52925;52.436;-1.952;2022-12-22T02:17:13;6.67;;;5.80;;
66127;SDS011;52925;52.436;-1.952;2022-12-22T02:18:57;6.67;;;5.43;;
66127;SDS011;52925;52.436;-1.952;2022-12-22T02:20:41;6.33;;;5.50;;
66127;SDS011;52925;52.436;-1.952;2022-12-22T02:22:26;7.00;;;5.20;;
66127;SDS011;52925;52.436;-1.952;2022-12-22T02:24:14;6.93;;;5.30;;
66127;SDS011;52925;52.436;-1.952;2022-12-22T02:26:01;5.83;;;5.20;;
66127;SDS011;52925;52.436;-1.952;2022-12-22T02:27:52;6.53;;;5.13;;
66127;SDS011;52925;52.436;-1.952;2022-12-22T02:29:33;7.57;;;6.17;;
66127;SDS011;52925;52.436;-1.952;2022-12-22T02:31:14;6.03;;;5.30;;
66127;SDS011;52925;52.436;-1.952;2022-12-22T02:32:52;7.27;;;5.30;;
66127;SDS011;52925;52.436;-1.952;2022-12-22T02:34:31;6.63;;;5.43;;
66127;SDS011;52925;52.436;-1.952;2022-12-22T02:36:11;7.00;;;5.13;;
66127;SDS011;52925;52.436;-1.952;2022-12-22T02:37:57;6.00;;;4.87;;
66127;SDS011;52925;52.436;-1.952;2022-12-22T02:39:42;6.57;;;4.70;;
66127;SDS011;52925;52.436;-1.952;2022-12-22T02:41:29;7.23;;;5.27;;
66127;SDS011;52925;52.436;-1.952;2022-12-22T02:43:20;6.43;;;5.17;;
66127;SDS011;52925;52.436;-1.952;2022-12-22T02:45:10;7.37;;;5.30;;
66127;SDS011;52925;52.436;-1.952;2022-12-22T02:46:54;6.07;;;4.73;;
66127;SDS011;52925;52.436;-1.952;2022-12-22T02:48:41;6.40;;;4.77;;
66127;SDS011;52925;52.436;-1.952;2022-12-22T02:50:28;6.47;;;4.97;;
66127;SDS011;52925;52.436;-1.952;2022-12-22T02:52:12;6.23;;;4.93;;
66127;SDS011;52925;52.436;-1.952;2022-12-22T02:53:56;6.80;;;4.63;;
66127;SDS011;52925;52.436;-1.952;2022-12-22T02:55:36;6.83;;;5.00;;
66127;SDS011;52925;52.436;-1.952;2022-12-22T02:57:16;5.20;;;4.33;;
66127;SDS011;52925;52.436;-1.952;2022-12-22T02:58:55;5.70;;;4.57;;
66127;SDS011;52925;52.436;-1.952;2022-12-22T03:00:34;6.63;;;4.57;;
66127;SDS011;52925;52.436;-1.952;2022-12-22T03:02:12;4.97;;;4.27;;
66127;SDS011;52925;52.436;-1.952;2022-12-22T03:03:51;5.63;;;4.53;;
66127;SDS011;52925;52.436;-1.952;2022-12-22T03:05:29;6.20;;;4.40;;
66127;SDS011;52925;52.436;-1.952;2022-12-22T03:07:07;5.37;;;4.33;;
66127;SDS011;52925;52.436;-1.952;2022-12-22T03:08:45;6.17;;;4.60;;
66127;SDS011;52925;52.436;-1.952;2022-12-22T03:10:24;5.83;;;4.53;;
66127;SDS011;52925;52.436;-1.952;2022-12-22T03:12:02;6.23;;;4.07;;
66127;SDS011;52925;52.436;-1.952;2022-12-22T03:13:42;5.30;;;4.17;;
66127;SDS011;52925;52.436;-1.952;2022-12-22T03:15:20;5.83;;;4.60;;
66127;SDS011;52925;52.436;-1.952;2022-12-22T03:16:59;6.67;;;4.37;;
66127;SDS011;52925;52.436;-1.952;2022-12-22T03:18:37;5.47;;;3.87;;
66127;SDS011;52925;52.436;-1.952;2022-12-22T03:20:16;5.83;;;4.10;;
66127;SDS011;52925;52.436;-1.952;2022-12-22T03:21:54;5.03;;;4.37;;
66127;SDS011;52925;52.436;-1.952;2022-12-22T03:23:33;5.73;;;3.70;;
66127;SDS011;52925;52.436;-1.952;2022-12-22T03:25:11;6.23;;;4.47;;
66127;SDS011;52925;52.436;-1.952;2022-12-22T03:26:50;5.57;;;3.70;;
66127;SDS011;52925;52.436;-1.952;2022-12-22T03:28:11;5.13;;;4.10;;
66127;SDS011;52925;52.436;-1.952;2022-12-22T03:29:32;4.87;;;4.03;;
66127;SDS011;52925;52.436;-1.952;2022-12-22T03:30:54;5.10;;;3.93;;
66127;SDS011;52925;52.436;-1.952;2022-12-22T03:32:15;6.73;;;4.27;;
66127;SDS011;52925;52.436;-1.952;2022-12-22T03:33:36;5.47;;;4.10;;
66127;SDS011;52925;52.436;-1.952;2022-12-22T03:34:57;6.23;;;4.27;;
66127;SDS011;52925;52.436;-1.952;2022-12-22T03:36:17;4.70;;;3.97;;
66127;SDS011;52925;52.436;-1.952;2022-12-22T03:37:39;6.93;;;4.03;;
66127;SDS011;52925;52.436;-1.952;2022-12-22T03:39:00;5.33;;;3.90;;
66127;SDS011;52925;52.436;-1.952;2022-12-22T03:40:20;5.73;;;3.87;;
66127;SDS011;52925;52.436;-1.952;2022-12-22T03:41:41;5.43;;;3.80;;
66127;SDS011;52925;52.436;-1.952;2022-12-22T03:43:19;5.77;;;4.10;;
66127;SDS011;52925;52.436;-1.952;2022-12-22T03:44:59;5.70;;;3.80;;
66127;SDS011;52925;52.436;-1.952;2022-12-22T03:46:37;5.40;;;3.90;;
66127;SDS011;52925;52.436;-1.952;2022-12-22T03:47:57;6.80;;;3.93;;
66127;SDS011;52925;52.436;-1.952;2022-12-22T03:49:17;5.50;;;3.50;;
66127;SDS011;52925;52.436;-1.952;2022-12-22T03:50:40;5.80;;;3.93;;
66127;SDS011;52925;52.436;-1.952;2022-12-22T03:52:01;5.23;;;3.60;;
66127;SDS011;52925;52.436;-1.952;2022-12-22T03:53:22;5.37;;;3.37;;
66127;SDS011;52925;52.436;-1.952;2022-12-22T03:54:42;6.37;;;3.60;;
66127;SDS011;52925;52.436;-1.952;2022-12-22T03:56:03;5.93;;;3.40;;
66127;SDS011;52925;52.436;-1.952;2022-12-22T03:57:23;4.90;;;3.53;;
66127;SDS011;52925;52.436;-1.952;2022-12-22T03:58:44;4.43;;;3.40;;
66127;SDS011;52925;52.436;-1.952;2022-12-22T04:00:07;4.33;;;3.30;;
66127;SDS011;52925;52.436;-1.952;2022-12-22T04:01:30;5.57;;;3.50;;
66127;SDS011;52925;52.436;-1.952;2022-12-22T04:02:51;4.60;;;3.03;;
66127;SDS011;52925;52.436;-1.952;2022-12-22T04:04:12;4.53;;;3.33;;
66127;SDS011;52925;52.436;-1.952;2022-12-22T04:05:34;5.27;;;3.57;;
66127;SDS011;52925;52.436;-1.952;2022-12-22T04:06:54;5.93;;;3.43;;
66127;SDS011;52925;52.436;-1.952;2022-12-22T04:08:15;4.97;;;3.10;;
66127;SDS011;52925;52.436;-1.952;2022-12-22T04:09:35;3.97;;;3.00;;
66127;SDS011;52925;52.436;-1.952;2022-12-22T04:11:17;4.33;;;3.03;;
66127;SDS011;52925;52.436;-1.952;2022-12-22T04:12:55;4.20;;;3.40;;
66127;SDS011;52925;52.436;-1.952;2022-12-22T04:14:15;3.90;;;3.10;;
66127;SDS011;52925;52.436;-1.952;2022-12-22T04:15:37;4.73;;;3.37;;
66127;SDS011;52925;52.436;-1.952;2022-12-22T04:16:56;4.70;;;2.90;;
66127;SDS011;52925;52.436;-1.952;2022-12-22T04:18:17;4.03;;;3.00;;
66127;SDS011;52925;52.436;-1.952;2022-12-22T04:19:37;3.30;;;2.90;;
66127;SDS011;52925;52.436;-1.952;2022-12-22T04:20:58;4.70;;;2.97;;
66127;SDS011;52925;52.436;-1.952;2022-12-22T04:22:18;4.13;;;3.10;;
66127;SDS011;52925;52.436;-1.952;2022-12-22T04:23:39;5.57;;;2.73;;
66127;SDS011;52925;52.436;-1.952;2022-12-22T04:24:59;4.00;;;2.80;;
66127;SDS011;52925;52.436;-1.952;2022-12-22T04:26:20;5.23;;;3.40;;
66127;SDS011;52925;52.436;-1.952;2022-12-22T04:27:41;4.87;;;2.97;;
66127;SDS011;52925;52.436;-1.952;2022-12-22T04:29:02;4.57;;;3.20;;
66127;SDS011;52925;52.436;-1.952;2022-12-22T04:30:23;4.77;;;2.97;;
66127;SDS011;52925;52.436;-1.952;2022-12-22T04:31:44;6.97;;;3.07;;
66127;SDS011;52925;52.436;-1.952;2022-12-22T04:33:05;5.60;;;2.97;;
66127;SDS011;52925;52.436;-1.952;2022-12-22T04:34:25;4.90;;;3.30;;
66127;SDS011;52925;52.436;-1.952;2022-12-22T04:35:46;5.50;;;3.53;;
66127;SDS011;52925;52.436;-1.952;2022-12-22T04:37:05;6.80;;;3.70;;
66127;SDS011;52925;52.436;-1.952;2022-12-22T04:38:26;6.80;;;3.37;;
66127;SDS011;52925;52.436;-1.952;2022-12-22T04:39:47;3.87;;;2.90;;
66127;SDS011;52925;52.436;-1.952;2022-12-22T04:41:08;5.40;;;3.47;;
66127;SDS011;52925;52.436;-1.952;2022-12-22T04:42:28;5.97;;;3.80;;
66127;SDS011;52925;52.436;-1.952;2022-12-22T04:43:48;7.90;;;3.73;;
66127;SDS011;52925;52.436;-1.952;2022-12-22T04:45:10;6.00;;;3.70;;
66127;SDS011;52925;52.436;-1.952;2022-12-22T04:46:30;4.87;;;3.33;;
66127;SDS011;52925;52.436;-1.952;2022-12-22T04:47:52;5.33;;;3.50;;
66127;SDS011;52925;52.436;-1.952;2022-12-22T04:49:13;5.10;;;3.60;;
66127;SDS011;52925;52.436;-1.952;2022-12-22T04:50:33;6.60;;;3.60;;
66127;SDS011;52925;52.436;-1.952;2022-12-22T04:51:53;4.50;;;3.27;;
66127;SDS011;52925;52.436;-1.952;2022-12-22T04:53:13;4.77;;;3.90;;
66127;SDS011;52925;52.436;-1.952;2022-12-22T04:54:34;6.33;;;3.60;;
66127;SDS011;52925;52.436;-1.952;2022-12-22T04:55:54;4.90;;;3.63;;
66127;SDS011;52925;52.436;-1.952;2022-12-22T04:57:18;4.20;;;3.40;;
66127;SDS011;52925;52.436;-1.952;2022-12-22T04:58:39;6.50;;;4.07;;
66127;SDS011;52925;52.436;-1.952;2022-12-22T05:00:00;6.10;;;3.90;;
66127;SDS011;52925;52.436;-1.952;2022-12-22T05:01:21;4.97;;;4.00;;
66127;SDS011;52925;52.436;-1.952;2022-12-22T05:02:42;6.27;;;3.70;;
66127;SDS011;52925;52.436;-1.952;2022-12-22T05:04:03;4.30;;;3.73;;
66127;SDS011;52925;52.436;-1.952;2022-12-22T05:05:24;5.30;;;4.10;;
66127;SDS011;52925;52.436;-1.952;2022-12-22T05:06:44;6.63;;;4.00;;
66127;SDS011;52925;52.436;-1.952;2022-12-22T05:08:05;4.40;;;3.73;;
66127;SDS011;52925;52.436;-1.952;2022-12-22T05:09:24;6.03;;;3.67;;
66127;SDS011;52925;52.436;-1.952;2022-12-22T05:10:45;6.37;;;4.17;;
66127;SDS011;52925;52.436;-1.952;2022-12-22T05:12:06;5.60;;;4.10;;
66127;SDS011;52925;52.436;-1.952;2022-12-22T05:13:41;5.07;;;3.90;;
66127;SDS011;52925;52.436;-1.952;2022-12-22T05:15:02;8.27;;;4.20;;
66127;SDS011;52925;52.436;-1.952;2022-12-22T05:16:22;6.57;;;4.20;;
66127;SDS011;52925;52.436;-1.952;2022-12-22T05:17:43;6.13;;;4.43;;
66127;SDS011;52925;52.436;-1.952;2022-12-22T05:19:05;4.27;;;3.87;;
66127;SDS011;52925;52.436;-1.952;2022-12-22T05:20:27;4.63;;;4.00;;
66127;SDS011;52925;52.436;-1.952;2022-12-22T05:21:47;5.63;;;4.10;;
66127;SDS011;52925;52.436;-1.952;2022-12-22T05:23:08;5.50;;;4.30;;
66127;SDS011;52925;52.436;-1.952;2022-12-22T05:24:28;4.97;;;4.27;;
66127;SDS011;52925;52.436;-1.952;2022-12-22T05:25:49;6.90;;;4.47;;
66127;SDS011;52925;52.436;-1.952;2022-12-22T05:27:10;5.43;;;4.00;;
66127;SDS011;52925;52.436;-1.952;2022-12-22T05:28:29;6.50;;;4.93;;
66127;SDS011;52925;52.436;-1.952;2022-12-22T05:29:50;4.77;;;4.07;;
66127;SDS011;52925;52.436;-1.952;2022-12-22T05:31:13;5.20;;;4.23;;
66127;SDS011;52925;52.436;-1.952;2022-12-22T05:32:35;6.37;;;4.30;;
66127;SDS011;52925;52.436;-1.952;2022-12-22T05:33:56;5.50;;;4.30;;
66127;SDS011;52925;52.436;-1.952;2022-12-22T05:35:18;6.13;;;4.37;;
66127;SDS011;52925;52.436;-1.952;2022-12-22T05:36:38;4.73;;;4.23;;
66127;SDS011;52925;52.436;-1.952;2022-12-22T05:37:59;6.57;;;4.27;;
66127;SDS011;52925;52.436;-1.952;2022-12-22T05:39:20;5.93;;;4.13;;
66127;SDS011;52925;52.436;-1.952;2022-12-22T05:40:39;5.33;;;4.50;;
66127;SDS011;52925;52.436;-1.952;2022-12-22T05:42:00;6.70;;;4.17;;
66127;SDS011;52925;52.436;-1.952;2022-12-22T05:43:19;6.87;;;4.37;;
66127;SDS011;52925;52.436;-1.952;2022-12-22T05:44:40;7.73;;;4.47;;
66127;SDS011;52925;52.436;-1.952;2022-12-22T05:46:00;4.97;;;4.00;;
66127;SDS011;52925;52.436;-1.952;2022-12-22T05:47:22;4.93;;;4.40;;
66127;SDS011;52925;52.436;-1.952;2022-12-22T05:48:42;5.60;;;4.03;;
66127;SDS011;52925;52.436;-1.952;2022-12-22T05:50:02;4.47;;;3.90;;
66127;SDS011;52925;52.436;-1.952;2022-12-22T05:51:24;6.17;;;4.13;;
66127;SDS011;52925;52.436;-1.952;2022-12-22T05:52:45;5.87;;;4.50;;
66127;SDS011;52925;52.436;-1.952;2022-12-22T05:54:06;4.73;;;3.97;;
66127;SDS011;52925;52.436;-1.952;2022-12-22T05:55:27;7.23;;;4.47;;
66127;SDS011;52925;52.436;-1.952;2022-12-22T05:56:48;5.27;;;4.53;;
66127;SDS011;52925;52.436;-1.952;2022-12-22T05:58:09;5.23;;;4.47;;
66127;SDS011;52925;52.436;-1.952;2022-12-22T05:59:30;7.10;;;4.00;;
66127;SDS011;52925;52.436;-1.952;2022-12-22T06:00:49;5.37;;;3.90;;
66127;SDS011;52925;52.436;-1.952;2022-12-22T06:02:10;5.53;;;4.57;;
66127;SDS011;52925;52.436;-1.952;2022-12-22T06:03:31;5.30;;;4.17;;
66127;SDS011;52925;52.436;-1.952;2022-12-22T06:04:52;4.70;;;4.20;;
66127;SDS011;52925;52.436;-1.952;2022-12-22T06:06:13;5.77;;;4.37;;
66127;SDS011;52925;52.436;-1.952;2022-12-22T06:07:35;5.87;;;3.90;;
66127;SDS011;52925;52.436;-1.952;2022-12-22T06:08:56;5.53;;;4.07;;
66127;SDS011;52925;52.436;-1.952;2022-12-22T06:10:16;6.07;;;3.83;;
66127;SDS011;52925;52.436;-1.952;2022-12-22T06:11:37;6.20;;;4.33;;
66127;SDS011;52925;52.436;-1.952;2022-12-22T06:12:58;6.10;;;4.47;;
66127;SDS011;52925;52.436;-1.952;2022-12-22T06:14:19;5.47;;;3.93;;
66127;SDS011;52925;52.436;-1.952;2022-12-22T06:15:39;4.33;;;3.93;;
66127;SDS011;52925;52.436;-1.952;2022-12-22T06:17:01;5.40;;;4.20;;
66127;SDS011;52925;52.436;-1.952;2022-12-22T06:18:21;7.40;;;4.43;;
66127;SDS011;52925;52.436;-1.952;2022-12-22T06:19:43;4.67;;;4.20;;
66127;SDS011;52925;52.436;-1.952;2022-12-22T06:21:03;5.73;;;4.17;;
66127;SDS011;52925;52.436;-1.952;2022-12-22T06:22:24;6.57;;;4.00;;
66127;SDS011;52925;52.436;-1.952;2022-12-22T06:23:46;6.00;;;4.33;;
66127;SDS011;52925;52.436;-1.952;2022-12-22T06:25:07;4.90;;;4.40;;
66127;SDS011;52925;52.436;-1.952;2022-12-22T06:26:28;5.13;;;4.33;;
66127;SDS011;52925;52.436;-1.952;2022-12-22T06:27:48;5.03;;;4.53;;
66127;SDS011;52925;52.436;-1.952;2022-12-22T06:29:09;5.50;;;4.30;;
66127;SDS011;52925;52.436;-1.952;2022-12-22T06:30:29;4.67;;;4.13;;
66127;SDS011;52925;52.436;-1.952;2022-12-22T06:31:49;6.10;;;4.57;;
66127;SDS011;52925;52.436;-1.952;2022-12-22T06:33:10;5.70;;;4.80;;
66127;SDS011;52925;52.436;-1.952;2022-12-22T06:34:30;5.13;;;4.63;;
66127;SDS011;52925;52.436;-1.952;2022-12-22T06:35:51;5.33;;;4.57;;
66127;SDS011;52925;52.436;-1.952;2022-12-22T06:37:11;5.03;;;4.53;;
66127;SDS011;52925;52.436;-1.952;2022-12-22T06:38:32;6.13;;;5.17;;
66127;SDS011;52925;52.436;-1.952;2022-12-22T06:39:54;5.30;;;4.80;;
66127;SDS011;52925;52.436;-1.952;2022-12-22T06:41:15;6.28;;;5.28;;
66127;SDS011;52925;52.436;-1.952;2022-12-22T06:42:56;6.07;;;5.17;;
66127;SDS011;52925;52.436;-1.952;2022-12-22T06:44:37;5.93;;;4.50;;
66127;SDS011;52925;52.436;-1.952;2022-12-22T06:45:57;5.80;;;5.03;;
66127;SDS011;52925;52.436;-1.952;2022-12-22T06:47:18;5.10;;;4.60;;
66127;SDS011;52925;52.436;-1.952;2022-12-22T06:48:38;5.10;;;4.60;;
66127;SDS011;52925;52.436;-1.952;2022-12-22T06:49:58;6.07;;;5.40;;
66127;SDS011;52925;52.436;-1.952;2022-12-22T06:51:18;7.00;;;5.30;;
66127;SDS011;52925;52.436;-1.952;2022-12-22T06:52:39;7.13;;;5.37;;
66127;SDS011;52925;52.436;-1.952;2022-12-22T06:53:58;5.77;;;4.93;;
66127;SDS011;52925;52.436;-1.952;2022-12-22T06:55:21;6.87;;;5.63;;
66127;SDS011;52925;52.436;-1.952;2022-12-22T06:56:41;7.07;;;4.97;;
66127;SDS011;52925;52.436;-1.952;2022-12-22T06:58:02;5.97;;;5.35;;
66127;SDS011;52925;52.436;-1.952;2022-12-22T06:59:23;6.40;;;5.27;;
66127;SDS011;52925;52.436;-1.952;2022-12-22T07:00:42;7.87;;;5.43;;
66127;SDS011;52925;52.436;-1.952;2022-12-22T07:02:07;5.90;;;5.40;;
66127;SDS011;52925;52.436;-1.952;2022-12-22T07:03:29;7.73;;;5.20;;
66127;SDS011;52925;52.436;-1.952;2022-12-22T07:04:50;6.43;;;5.30;;
66127;SDS011;52925;52.436;-1.952;2022-12-22T07:06:11;7.23;;;5.60;;
66127;SDS011;52925;52.436;-1.952;2022-12-22T07:07:31;6.67;;;4.77;;
66127;SDS011;52925;52.436;-1.952;2022-12-22T07:08:53;5.30;;;4.53;;
66127;SDS011;52925;52.436;-1.952;2022-12-22T07:10:13;6.73;;;5.23;;
66127;SDS011;52925;52.436;-1.952;2022-12-22T07:11:36;5.53;;;4.90;;
66127;SDS011;52925;52.436;-1.952;2022-12-22T07:12:56;5.53;;;4.93;;
66127;SDS011;52925;52.436;-1.952;2022-12-22T07:14:36;7.70;;;4.93;;
66127;SDS011;52925;52.436;-1.952;2022-12-22T07:15:57;6.23;;;4.83;;
66127;SDS011;52925;52.436;-1.952;2022-12-22T07:17:18;5.30;;;4.77;;
66127;SDS011;52925;52.436;-1.952;2022-12-22T07:18:39;8.50;;;5.33;;
66127;SDS011;52925;52.436;-1.952;2022-12-22T07:20:02;5.70;;;5.10;;
66127;SDS011;52925;52.436;-1.952;2022-12-22T07:21:23;8.30;;;5.23;;
66127;SDS011;52925;52.436;-1.952;2022-12-22T07:22:44;7.50;;;5.33;;
66127;SDS011;52925;52.436;-1.952;2022-12-22T07:24:05;7.10;;;5.70;;
66127;SDS011;52925;52.436;-1.952;2022-12-22T07:25:27;7.53;;;5.03;;
66127;SDS011;52925;52.436;-1.952;2022-12-22T07:26:48;8.23;;;5.60;;
66127;SDS011;52925;52.436;-1.952;2022-12-22T07:28:09;6.33;;;5.47;;
66127;SDS011;52925;52.436;-1.952;2022-12-22T07:29:29;6.03;;;5.03;;
66127;SDS011;52925;52.436;-1.952;2022-12-22T07:30:50;6.33;;;5.60;;
66127;SDS011;52925;52.436;-1.952;2022-12-22T07:32:11;6.30;;;5.70;;
66127;SDS011;52925;52.436;-1.952;2022-12-22T07:33:32;7.40;;;5.57;;
66127;SDS011;52925;52.436;-1.952;2022-12-22T07:34:53;8.37;;;5.53;;
66127;SDS011;52925;52.436;-1.952;2022-12-22T07:36:15;8.13;;;5.57;;
66127;SDS011;52925;52.436;-1.952;2022-12-22T07:37:37;6.03;;;5.43;;
66127;SDS011;52925;52.436;-1.952;2022-12-22T07:38:57;7.65;;;5.75;;
66127;SDS011;52925;52.436;-1.952;2022-12-22T07:40:17;7.07;;;5.47;;
66127;SDS011;52925;52.436;-1.952;2022-12-22T07:41:38;6.13;;;5.30;;
66127;SDS011;52925;52.436;-1.952;2022-12-22T07:43:17;5.93;;;5.33;;
66127;SDS011;52925;52.436;-1.952;2022-12-22T07:44:38;6.27;;;5.00;;
66127;SDS011;52925;52.436;-1.952;2022-12-22T07:45:58;7.30;;;5.57;;
66127;SDS011;52925;52.436;-1.952;2022-12-22T07:47:19;6.87;;;5.43;;
66127;SDS011;52925;52.436;-1.952;2022-12-22T07:48:40;7.17;;;5.70;;
66127;SDS011;52925;52.436;-1.952;2022-12-22T07:50:19;9.50;;;6.30;;
66127;SDS011;52925;52.436;-1.952;2022-12-22T07:51:46;8.07;;;5.90;;
66127;SDS011;52925;52.436;-1.952;2022-12-22T07:53:07;8.33;;;5.60;;
66127;SDS011;52925;52.436;-1.952;2022-12-22T07:54:28;8.67;;;6.47;;
66127;SDS011;52925;52.436;-1.952;2022-12-22T07:55:49;8.53;;;6.43;;
66127;SDS011;52925;52.436;-1.952;2022-12-22T07:57:09;8.63;;;5.90;;
66127;SDS011;52925;52.436;-1.952;2022-12-22T07:58:31;9.43;;;5.73;;
66127;SDS011;52925;52.436;-1.952;2022-12-22T07:59:52;8.60;;;5.93;;
66127;SDS011;52925;52.436;-1.952;2022-12-22T08:01:13;7.53;;;6.07;;
66127;SDS011;52925;52.436;-1.952;2022-12-22T08:02:34;8.43;;;5.67;;
66127;SDS011;52925;52.436;-1.952;2022-12-22T08:03:55;9.23;;;6.87;;
66127;SDS011;52925;52.436;-1.952;2022-12-22T08:05:16;9.63;;;7.43;;
66127;SDS011;52925;52.436;-1.952;2022-12-22T08:06:37;10.07;;;7.10;;
66127;SDS011;52925;52.436;-1.952;2022-12-22T08:07:58;9.23;;;6.93;;
66127;SDS011;52925;52.436;-1.952;2022-12-22T08:09:19;11.67;;;8.20;;
66127;SDS011;52925;52.436;-1.952;2022-12-22T08:10:40;11.30;;;8.47;;
66127;SDS011;52925;52.436;-1.952;2022-12-22T08:12:01;11.33;;;8.17;;
66127;SDS011;52925;52.436;-1.952;2022-12-22T08:13:23;9.93;;;8.57;;
66127;SDS011;52925;52.436;-1.952;2022-12-22T08:14:45;14.33;;;9.63;;
66127;SDS011;52925;52.436;-1.952;2022-12-22T08:16:07;13.60;;;9.97;;
66127;SDS011;52925;52.436;-1.952;2022-12-22T08:17:29;12.30;;;9.83;;
66127;SDS011;52925;52.436;-1.952;2022-12-22T08:18:50;14.27;;;11.03;;
66127;SDS011;52925;52.436;-1.952;2022-12-22T08:20:12;16.90;;;11.77;;
66127;SDS011;52925;52.436;-1.952;2022-12-22T08:21:33;13.80;;;10.87;;
66127;SDS011;52925;52.436;-1.952;2022-12-22T08:22:55;13.87;;;11.67;;
66127;SDS011;52925;52.436;-1.952;2022-12-22T08:24:15;14.20;;;10.87;;
66127;SDS011;52925;52.436;-1.952;2022-12-22T08:25:36;15.03;;;10.73;;
66127;SDS011;52925;52.436;-1.952;2022-12-22T08:26:57;15.87;;;10.77;;
66127;SDS011;52925;52.436;-1.952;2022-12-22T08:28:22;14.73;;;11.27;;
66127;SDS011;52925;52.436;-1.952;2022-12-22T08:29:45;14.80;;;11.03;;
66127;SDS011;52925;52.436;-1.952;2022-12-22T08:31:10;13.67;;;10.57;;
66127;SDS011;52925;52.436;-1.952;2022-12-22T08:32:31;12.97;;;9.43;;
66127;SDS011;52925;52.436;-1.952;2022-12-22T08:33:53;12.20;;;9.97;;
66127;SDS011;52925;52.436;-1.952;2022-12-22T08:35:16;12.70;;;10.10;;
66127;SDS011;52925;52.436;-1.952;2022-12-22T08:36:38;12.07;;;10.13;;
66127;SDS011;52925;52.436;-1.952;2022-12-22T08:38:01;13.60;;;9.73;;
66127;SDS011;52925;52.436;-1.952;2022-12-22T08:39:23;13.30;;;9.77;;
66127;SDS011;52925;52.436;-1.952;2022-12-22T08:40:48;11.20;;;8.90;;
66127;SDS011;52925;52.436;-1.952;2022-12-22T08:42:09;12.50;;;10.00;;
66127;SDS011;52925;52.436;-1.952;2022-12-22T08:43:32;11.80;;;9.20;;
66127;SDS011;52925;52.436;-1.952;2022-12-22T08:44:55;11.77;;;8.73;;